Rokeby, Nebraska
Current Conditions -  °F | °C
As of 8:54 AM on Monday 22 Dec 2014 (Local Time) from KLNK Reporting Station
Haze Haze  
Wind Chill: 39°   Ceiling: 400
Heat Index: 43°   Visibility: 1.2mi
Dew Point: 42°   Wind: 7mph
Humidity: 97%   Direction: 180°S
Pressure: 29.5"   Gusts: NA
Location:  40.7368°N, 96.7652°W
Report Text: KLNK 221454Z 18006KT 1 1/4SM BR OVC004 06/06 A2950 RMK AO2 RAE14 SLP994 P0001 60005 T00610056 56007
Loading
Personal Weather Stations






























Interactive Weather Map New forecast layout! Learn more

10-Day Weather Forecast

Advertisements
Track Severe Weather on mobile